Portada
METAR-TAF:

METAR-TAF

Aeropuertos :

Souillac

Brive-la-Gaillarde, Francia

latitud: 45-02-28N, longitud: 001-28-59E, altitud: 311 m

Observación

El informe se hizo hace 15 minutos, a las 01:30 UTC
Viento 2 kt del sureste
Temperatura 6°C
Humedad 87%
Presión 1021 hPa
Visibilidad 10 km o más
sin nubes por debajo de 1500 m y sin presencia de cumulonimbus.

METAR: LFSL 240130Z AUTO 14002KT CAVOK 06/04 Q1021

Hora: 02:45 (01:45 UTC)

Pronóstico

El informe se hizo hace 8 horas y 45 minutos, a las 17:00 UTC
Pronóstico válido del 23 a las 18 UTC al 24 a las 03 UTC
Viento 8 kt del este-sureste
Visibilidad 10 km o más
sin nubes por debajo de 1500 m y sin presencia de cumulonimbus.
Temporalmente
del 23 a las 19 UTC al 23 a las 23 UTC
Cielo nuboso a una altura de 3500 ft
Evolucionando progresivamente
del 24 a las 01 UTC al 24 a las 03 UTC
Viento 2 kt con dirección variable

TAF: LFSL 231700Z 2318/2403 12008KT CAVOK TEMPO 2319/2323 BKN035 BECMG 2401/2403 VRB02KT

Observaciones y pronósticos meteorológicos de más de 4000 aeropuertos (mensajes METAR y TAF).

Los puntos amarillos y rojos representan las estaciones disponibles.

Ponga el ratón en el punto deseado para ver el nombre de la estación.

Haga clic para ver las observaciones y los pronósticos meteorológicos.

Para cambiar el mapa : haga clic en los botones verdes con una cruz de color negro para hacer un zoom, en el botón verde con un guión para alejar o en las flechas verdes para mapas adyacentes.


METAR-TAF: